sensor_id;sensor_type;location;lat;lon;timestamp;pressure;altitude;pressure_sealevel;temperature;humidity
29163;BME280;20331;53.144;8.208;2024-01-30T00:04:35;102719.88;;;7.79;97.11
29163;BME280;20331;53.144;8.208;2024-01-30T00:09:57;102722.44;;;7.77;97.01
29163;BME280;20331;53.144;8.208;2024-01-30T00:15:18;102716.41;;;7.77;96.86
29163;BME280;20331;53.144;8.208;2024-01-30T00:20:40;102707.75;;;7.72;96.94
29163;BME280;20331;53.144;8.208;2024-01-30T00:26:02;102711.16;;;7.69;97.46
29163;BME280;20331;53.144;8.208;2024-01-30T00:31:24;102697.38;;;7.66;97.25
29163;BME280;20331;53.144;8.208;2024-01-30T00:36:46;102688.75;;;7.64;97.19
29163;BME280;20331;53.144;8.208;2024-01-30T00:42:08;102692.22;;;7.66;97.46
29163;BME280;20331;53.144;8.208;2024-01-30T00:47:29;102693.91;;;7.64;97.08
29163;BME280;20331;53.144;8.208;2024-01-30T00:52:51;102687.94;;;7.68;97.32
29163;BME280;20331;53.144;8.208;2024-01-30T00:58:13;102681.06;;;7.65;97.00
29163;BME280;20331;53.144;8.208;2024-01-30T01:03:34;102661.31;;;7.66;96.82
29163;BME280;20331;53.144;8.208;2024-01-30T01:08:56;102676.81;;;7.69;97.50
29163;BME280;20331;53.144;8.208;2024-01-30T01:14:18;102667.34;;;7.69;96.83
29163;BME280;20331;53.144;8.208;2024-01-30T01:19:39;102681.09;;;7.68;97.02
29163;BME280;20331;53.144;8.208;2024-01-30T01:25:01;102678.50;;;7.67;96.77
29163;BME280;20331;53.144;8.208;2024-01-30T01:30:23;102677.56;;;7.60;97.04
29163;BME280;20331;53.144;8.208;2024-01-30T01:35:45;102680.03;;;7.53;97.45
29163;BME280;20331;53.144;8.208;2024-01-30T01:41:06;102676.53;;;7.48;97.95
29163;BME280;20331;53.144;8.208;2024-01-30T01:46:30;102676.53;;;7.45;97.94
29163;BME280;20331;53.144;8.208;2024-01-30T01:51:55;102679.09;;;7.45;97.87
29163;BME280;20331;53.144;8.208;2024-01-30T01:57:20;102661.78;;;7.36;98.07
29163;BME280;20331;53.144;8.208;2024-01-30T02:02:43;102662.63;;;7.34;98.45
29163;BME280;20331;53.144;8.208;2024-01-30T02:08:07;102649.75;;;7.34;98.47
29163;BME280;20331;53.144;8.208;2024-01-30T02:13:30;102643.72;;;7.32;98.66
29163;BME280;20331;53.144;8.208;2024-01-30T02:18:52;102633.47;;;7.35;98.67
29163;BME280;20331;53.144;8.208;2024-01-30T02:24:13;102636.03;;;7.36;98.46
29163;BME280;20331;53.144;8.208;2024-01-30T02:29:35;102635.19;;;7.36;98.44
29163;BME280;20331;53.144;8.208;2024-01-30T02:34:57;102623.16;;;7.35;98.59
29163;BME280;20331;53.144;8.208;2024-01-30T02:40:21;102616.28;;;7.31;99.05
29163;BME280;20331;53.144;8.208;2024-01-30T02:45:43;102615.41;;;7.32;98.92
29163;BME280;20331;53.144;8.208;2024-01-30T02:51:05;102604.19;;;7.27;99.21
29163;BME280;20331;53.144;8.208;2024-01-30T02:56:27;102605.03;;;7.27;99.46
29163;BME280;20331;53.144;8.208;2024-01-30T03:01:49;102602.47;;;7.27;99.72
29163;BME280;20331;53.144;8.208;2024-01-30T03:07:11;102599.06;;;7.30;100.00
29163;BME280;20331;53.144;8.208;2024-01-30T03:12:33;102593.91;;;7.27;99.73
29163;BME280;20331;53.144;8.208;2024-01-30T03:17:54;102585.31;;;7.28;100.00
29163;BME280;20331;53.144;8.208;2024-01-30T03:23:16;102589.63;;;7.29;100.00
29163;BME280;20331;53.144;8.208;2024-01-30T03:28:38;102582.81;;;7.31;100.00
29163;BME280;20331;53.144;8.208;2024-01-30T03:34:00;102588.00;;;7.37;100.00
29163;BME280;20331;53.144;8.208;2024-01-30T03:39:23;102582.03;;;7.41;100.00
29163;BME280;20331;53.144;8.208;2024-01-30T03:44:44;102571.75;;;7.44;100.00
29163;BME280;20331;53.144;8.208;2024-01-30T03:50:06;102558.88;;;7.42;100.00
29163;BME280;20331;53.144;8.208;2024-01-30T03:55:28;102553.72;;;7.42;100.00
29163;BME280;20331;53.144;8.208;2024-01-30T04:00:50;102558.88;;;7.42;100.00
29163;BME280;20331;53.144;8.208;2024-01-30T04:06:14;102545.97;;;7.38;100.00
29163;BME280;20331;53.144;8.208;2024-01-30T04:11:36;102546.78;;;7.35;100.00
29163;BME280;20331;53.144;8.208;2024-01-30T04:16:58;102540.75;;;7.32;100.00
29163;BME280;20331;53.144;8.208;2024-01-30T04:22:19;102537.34;;;7.36;100.00
29163;BME280;20331;53.144;8.208;2024-01-30T04:27:41;102528.75;;;7.32;100.00
29163;BME280;20331;53.144;8.208;2024-01-30T04:33:03;102531.31;;;7.31;100.00
29163;BME280;20331;53.144;8.208;2024-01-30T04:38:25;102533.84;;;7.29;100.00
29163;BME280;20331;53.144;8.208;2024-01-30T04:43:47;102535.59;;;7.32;100.00
29163;BME280;20331;53.144;8.208;2024-01-30T04:49:27;102536.47;;;7.34;100.00
29163;BME280;20331;53.144;8.208;2024-01-30T04:54:51;102527.84;;;7.29;100.00
29163;BME280;20331;53.144;8.208;2024-01-30T05:00:12;102526.13;;;7.29;100.00
29163;BME280;20331;53.144;8.208;2024-01-30T05:05:34;102526.16;;;7.32;100.00
29163;BME280;20331;53.144;8.208;2024-01-30T05:10:56;102522.75;;;7.35;100.00
29163;BME280;20331;53.144;8.208;2024-01-30T05:16:18;102518.47;;;7.38;100.00
29163;BME280;20331;53.144;8.208;2024-01-30T05:21:40;102519.34;;;7.39;100.00
29163;BME280;20331;53.144;8.208;2024-01-30T05:27:02;102519.34;;;7.37;100.00
29163;BME280;20331;53.144;8.208;2024-01-30T05:32:24;102525.31;;;7.35;100.00
29163;BME280;20331;53.144;8.208;2024-01-30T05:37:46;102518.44;;;7.34;100.00
29163;BME280;20331;53.144;8.208;2024-01-30T05:43:07;102520.16;;;7.35;100.00
29163;BME280;20331;53.144;8.208;2024-01-30T05:48:29;102509.81;;;7.29;100.00
29163;BME280;20331;53.144;8.208;2024-01-30T05:53:51;102513.22;;;7.28;100.00
29163;BME280;20331;53.144;8.208;2024-01-30T05:59:13;102506.38;;;7.27;100.00
29163;BME280;20331;53.144;8.208;2024-01-30T06:04:34;102503.78;;;7.27;100.00
29163;BME280;20331;53.144;8.208;2024-01-30T06:09:56;102506.38;;;7.30;100.00
29163;BME280;20331;53.144;8.208;2024-01-30T06:15:18;102507.28;;;7.33;100.00
29163;BME280;20331;53.144;8.208;2024-01-30T06:20:40;102508.16;;;7.34;100.00
29163;BME280;20331;53.144;8.208;2024-01-30T06:26:02;102492.69;;;7.34;100.00
29163;BME280;20331;53.144;8.208;2024-01-30T06:31:23;102485.78;;;7.30;100.00
29163;BME280;20331;53.144;8.208;2024-01-30T06:36:46;102481.59;;;7.39;100.00
29163;BME280;20331;53.144;8.208;2024-01-30T06:42:07;102477.31;;;7.40;100.00
29163;BME280;20331;53.144;8.208;2024-01-30T06:47:29;102483.31;;;7.42;100.00
29163;BME280;20331;53.144;8.208;2024-01-30T06:52:52;102482.47;;;7.40;100.00
29163;BME280;20331;53.144;8.208;2024-01-30T06:58:14;102497.88;;;7.37;100.00
29163;BME280;20331;53.144;8.208;2024-01-30T07:03:36;102487.63;;;7.40;100.00
29163;BME280;20331;53.144;8.208;2024-01-30T07:08:57;102479.03;;;7.39;100.00
29163;BME280;20331;53.144;8.208;2024-01-30T07:14:19;102480.72;;;7.39;100.00
29163;BME280;20331;53.144;8.208;2024-01-30T07:19:41;102475.59;;;7.39;100.00
29163;BME280;20331;53.144;8.208;2024-01-30T07:25:03;102460.13;;;7.39;100.00
29163;BME280;20331;53.144;8.208;2024-01-30T07:30:25;102475.59;;;7.42;100.00
29163;BME280;20331;53.144;8.208;2024-01-30T07:35:46;102479.06;;;7.44;100.00
29163;BME280;20331;53.144;8.208;2024-01-30T07:41:08;102488.59;;;7.51;100.00
29163;BME280;20331;53.144;8.208;2024-01-30T07:46:30;102476.59;;;7.56;100.00
29163;BME280;20331;53.144;8.208;2024-01-30T07:51:52;102480.94;;;7.60;100.00
29163;BME280;20331;53.144;8.208;2024-01-30T07:57:14;102477.53;;;7.64;100.00
29163;BME280;20331;53.144;8.208;2024-01-30T08:02:35;102493.03;;;7.70;100.00
29163;BME280;20331;53.144;8.208;2024-01-30T08:07:57;102488.81;;;7.76;100.00
29163;BME280;20331;53.144;8.208;2024-01-30T08:13:19;102487.13;;;7.81;100.00
29163;BME280;20331;53.144;8.208;2024-01-30T08:18:41;102467.41;;;7.89;100.00
29163;BME280;20331;53.144;8.208;2024-01-30T08:24:03;102470.91;;;7.94;100.00
29163;BME280;20331;53.144;8.208;2024-01-30T08:29:26;102464.06;;;8.01;100.00
29163;BME280;20331;53.144;8.208;2024-01-30T08:34:48;102465.00;;;8.10;100.00
29163;BME280;20331;53.144;8.208;2024-01-30T08:40:10;102459.91;;;8.20;100.00
29163;BME280;20331;53.144;8.208;2024-01-30T08:45:32;102453.97;;;8.28;100.00
29163;BME280;20331;53.144;8.208;2024-01-30T08:50:54;102454.03;;;8.40;100.00
29163;BME280;20331;53.144;8.208;2024-01-30T08:56:15;102454.09;;;8.52;100.00
29163;BME280;20331;53.144;8.208;2024-01-30T09:01:38;102452.41;;;8.62;100.00
29163;BME280;20331;53.144;8.208;2024-01-30T09:07:02;102435.22;;;8.68;100.00
29163;BME280;20331;53.144;8.208;2024-01-30T09:12:26;102452.47;;;8.81;100.00
29163;BME280;20331;53.144;8.208;2024-01-30T09:17:48;102470.59;;;8.96;99.53
29163;BME280;20331;53.144;8.208;2024-01-30T09:23:10;102479.25;;;9.10;98.89
29163;BME280;20331;53.144;8.208;2024-01-30T09:28:32;102487.00;;;9.17;99.23
29163;BME280;20331;53.144;8.208;2024-01-30T09:33:54;102481.88;;;9.26;98.47
29163;BME280;20331;53.144;8.208;2024-01-30T09:39:16;102476.69;;;9.27;98.37
29163;BME280;20331;53.144;8.208;2024-01-30T09:44:38;102476.72;;;9.38;98.22
29163;BME280;20331;53.144;8.208;2024-01-30T09:50:04;102487.06;;;9.45;98.26
29163;BME280;20331;53.144;8.208;2024-01-30T09:55:27;102495.69;;;9.52;97.53
29163;BME280;20331;53.144;8.208;2024-01-30T10:00:49;102498.25;;;9.58;98.05
29163;BME280;20331;53.144;8.208;2024-01-30T10:06:11;102487.06;;;9.63;97.65
29163;BME280;20331;53.144;8.208;2024-01-30T10:11:33;102488.81;;;9.76;97.66
29163;BME280;20331;53.144;8.208;2024-01-30T10:16:55;102487.09;;;9.86;97.12
29163;BME280;20331;53.144;8.208;2024-01-30T10:22:19;102497.41;;;9.95;96.81
29163;BME280;20331;53.144;8.208;2024-01-30T10:27:41;102478.44;;;10.02;96.87
29163;BME280;20331;53.144;8.208;2024-01-30T10:33:03;102467.25;;;10.09;96.83
29163;BME280;20331;53.144;8.208;2024-01-30T10:38:28;102479.34;;;10.16;96.70
29163;BME280;20331;53.144;8.208;2024-01-30T10:43:58;102470.69;;;10.23;97.26
29163;BME280;20331;53.144;8.208;2024-01-30T10:49:24;102468.09;;;10.32;96.53
29163;BME280;20331;53.144;8.208;2024-01-30T10:54:46;102466.34;;;10.37;96.00
29163;BME280;20331;53.144;8.208;2024-01-30T11:00:10;102468.91;;;10.46;96.49
29163;BME280;20331;53.144;8.208;2024-01-30T11:05:33;102455.06;;;10.53;96.76
29163;BME280;20331;53.144;8.208;2024-01-30T11:10:58;102465.38;;;10.62;96.41
29163;BME280;20331;53.144;8.208;2024-01-30T11:16:20;102451.56;;;10.68;96.28
29163;BME280;20331;53.144;8.208;2024-01-30T11:21:42;102457.59;;;10.74;95.93
29163;BME280;20331;53.144;8.208;2024-01-30T11:27:08;102463.56;;;10.82;96.03
29163;BME280;20331;53.144;8.208;2024-01-30T11:32:30;102456.63;;;10.90;96.19
29163;BME280;20331;53.144;8.208;2024-01-30T11:37:54;102457.47;;;10.98;95.82
29163;BME280;20331;53.144;8.208;2024-01-30T11:43:16;102445.38;;;10.97;95.98
29163;BME280;20331;53.144;8.208;2024-01-30T11:48:39;102451.34;;;11.08;96.27
29163;BME280;20331;53.144;8.208;2024-01-30T11:54:01;102453.03;;;11.19;96.16
29163;BME280;20331;53.144;8.208;2024-01-30T11:59:22;102452.97;;;11.25;95.43
29163;BME280;20331;53.144;8.208;2024-01-30T12:04:44;102448.63;;;11.31;95.83
29163;BME280;20331;53.144;8.208;2024-01-30T12:10:08;102440.81;;;11.34;95.98
29163;BME280;20331;53.144;8.208;2024-01-30T12:15:34;102443.38;;;11.36;96.02
29163;BME280;20331;53.144;8.208;2024-01-30T12:20:59;102437.31;;;11.41;95.79
29163;BME280;20331;53.144;8.208;2024-01-30T12:26:21;102439.88;;;11.43;95.68
29163;BME280;20331;53.144;8.208;2024-01-30T12:31:43;102441.66;;;11.41;96.47
29163;BME280;20331;53.144;8.208;2024-01-30T12:37:05;102427.75;;;11.45;96.37
29163;BME280;20331;53.144;8.208;2024-01-30T12:42:28;102428.63;;;11.45;96.57
29163;BME280;20331;53.144;8.208;2024-01-30T12:47:50;102437.31;;;11.44;96.64
29163;BME280;20331;53.144;8.208;2024-01-30T12:53:13;102433.84;;;11.42;96.61
29163;BME280;20331;53.144;8.208;2024-01-30T12:58:34;102421.75;;;11.41;97.24
29163;BME280;20331;53.144;8.208;2024-01-30T13:03:56;102429.53;;;11.41;97.13
29163;BME280;20331;53.144;8.208;2024-01-30T13:09:20;102430.44;;;11.39;97.60
29163;BME280;20331;53.144;8.208;2024-01-30T13:14:42;102434.69;;;11.46;97.49
29163;BME280;20331;53.144;8.208;2024-01-30T13:20:04;102435.53;;;11.48;97.32
29163;BME280;20331;53.144;8.208;2024-01-30T13:25:32;102435.50;;;11.51;97.13
29163;BME280;20331;53.144;8.208;2024-01-30T13:30:54;102436.34;;;11.53;97.45
29163;BME280;20331;53.144;8.208;2024-01-30T13:36:16;102440.66;;;11.55;97.41
29163;BME280;20331;53.144;8.208;2024-01-30T13:41:38;102444.94;;;11.59;96.94
29163;BME280;20331;53.144;8.208;2024-01-30T13:47:00;102432.84;;;11.63;96.28
29163;BME280;20331;53.144;8.208;2024-01-30T13:52:22;102431.09;;;11.68;95.67
29163;BME280;20331;53.144;8.208;2024-01-30T13:57:52;102419.81;;;11.70;95.44
29163;BME280;20331;53.144;8.208;2024-01-30T14:03:13;102415.47;;;11.71;96.04
29163;BME280;20331;53.144;8.208;2024-01-30T14:08:35;102415.47;;;11.75;95.17
29163;BME280;20331;53.144;8.208;2024-01-30T14:13:57;102411.94;;;11.79;95.07
29163;BME280;20331;53.144;8.208;2024-01-30T14:19:19;102411.81;;;11.93;93.88
29163;BME280;20331;53.144;8.208;2024-01-30T14:24:41;102427.38;;;11.93;94.14
29163;BME280;20331;53.144;8.208;2024-01-30T14:30:03;102423.88;;;11.97;93.31
29163;BME280;20331;53.144;8.208;2024-01-30T14:35:25;102419.63;;;11.90;93.64
29163;BME280;20331;53.144;8.208;2024-01-30T14:40:46;102426.50;;;11.92;93.57
29163;BME280;20331;53.144;8.208;2024-01-30T14:46:08;102408.38;;;11.91;93.90
29163;BME280;20331;53.144;8.208;2024-01-30T14:51:30;102416.22;;;11.85;94.01
29163;BME280;20331;53.144;8.208;2024-01-30T14:56:52;102432.63;;;11.87;94.04
29163;BME280;20331;53.144;8.208;2024-01-30T15:02:14;102438.69;;;11.86;94.07
29163;BME280;20331;53.144;8.208;2024-01-30T15:07:36;102442.16;;;11.83;93.79
29163;BME280;20331;53.144;8.208;2024-01-30T15:13:01;102455.13;;;11.83;93.78
29163;BME280;20331;53.144;8.208;2024-01-30T15:18:23;102469.06;;;11.75;93.45
29163;BME280;20331;53.144;8.208;2024-01-30T15:23:45;102487.25;;;11.61;93.34
29163;BME280;20331;53.144;8.208;2024-01-30T15:29:06;102485.63;;;11.48;93.20
29163;BME280;20331;53.144;8.208;2024-01-30T15:34:28;102487.47;;;11.37;92.37
29163;BME280;20331;53.144;8.208;2024-01-30T15:39:50;102490.97;;;11.32;91.09
29163;BME280;20331;53.144;8.208;2024-01-30T15:45:11;102489.25;;;11.28;91.01
29163;BME280;20331;53.144;8.208;2024-01-30T15:50:33;102512.56;;;11.25;91.14
29163;BME280;20331;53.144;8.208;2024-01-30T15:55:55;102501.41;;;11.17;90.27
29163;BME280;20331;53.144;8.208;2024-01-30T16:01:16;102513.50;;;11.16;90.57
29163;BME280;20331;53.144;8.208;2024-01-30T16:06:38;102512.66;;;11.08;90.48
29163;BME280;20331;53.144;8.208;2024-01-30T16:12:00;102540.31;;;11.04;89.30
29163;BME280;20331;53.144;8.208;2024-01-30T16:17:22;102529.97;;;11.01;89.53
29163;BME280;20331;53.144;8.208;2024-01-30T16:22:44;102529.97;;;11.00;89.98
29163;BME280;20331;53.144;8.208;2024-01-30T16:28:06;102536.91;;;10.96;89.56
29163;BME280;20331;53.144;8.208;2024-01-30T16:33:29;102542.09;;;10.92;89.32
29163;BME280;20331;53.144;8.208;2024-01-30T16:38:51;102554.19;;;10.88;88.64
29163;BME280;20331;53.144;8.208;2024-01-30T16:44:12;102540.41;;;10.83;88.55
29163;BME280;20331;53.144;8.208;2024-01-30T16:49:35;102536.97;;;10.78;89.00
29163;BME280;20331;53.144;8.208;2024-01-30T16:54:57;102550.78;;;10.77;89.88
29163;BME280;20331;53.144;8.208;2024-01-30T17:00:18;102562.03;;;10.75;90.10
29163;BME280;20331;53.144;8.208;2024-01-30T17:05:40;102565.47;;;10.74;90.00
29163;BME280;20331;53.144;8.208;2024-01-30T17:11:02;102568.09;;;10.69;90.00
29163;BME280;20331;53.144;8.208;2024-01-30T17:16:24;102587.03;;;10.68;90.43
29163;BME280;20331;53.144;8.208;2024-01-30T17:21:46;102605.19;;;10.58;90.83
29163;BME280;20331;53.144;8.208;2024-01-30T17:27:12;102585.34;;;10.46;91.56
29163;BME280;20331;53.144;8.208;2024-01-30T17:32:34;102605.19;;;10.44;92.30
29163;BME280;20331;53.144;8.208;2024-01-30T17:37:56;102612.97;;;10.32;93.23
29163;BME280;20331;53.144;8.208;2024-01-30T17:43:18;102624.19;;;10.18;95.90
29163;BME280;20331;53.144;8.208;2024-01-30T17:48:39;102618.13;;;10.11;97.13
29163;BME280;20331;53.144;8.208;2024-01-30T17:54:01;102630.16;;;9.95;99.77
29163;BME280;20331;53.144;8.208;2024-01-30T17:59:22;102628.41;;;9.84;100.00
29163;BME280;20331;53.144;8.208;2024-01-30T18:04:44;102628.41;;;9.72;100.00
29163;BME280;20331;53.144;8.208;2024-01-30T18:10:07;102643.00;;;9.61;100.00
29163;BME280;20331;53.144;8.208;2024-01-30T18:15:29;102636.09;;;9.55;100.00
29163;BME280;20331;53.144;8.208;2024-01-30T18:20:52;102642.94;;;9.44;100.00
29163;BME280;20331;53.144;8.208;2024-01-30T18:26:13;102655.00;;;9.41;100.00
29163;BME280;20331;53.144;8.208;2024-01-30T18:31:37;102661.03;;;9.43;100.00
29163;BME280;20331;53.144;8.208;2024-01-30T18:37:03;102666.22;;;9.43;100.00
29163;BME280;20331;53.144;8.208;2024-01-30T18:42:25;102672.22;;;9.43;100.00
29163;BME280;20331;53.144;8.208;2024-01-30T18:47:47;102669.63;;;9.39;100.00
29163;BME280;20331;53.144;8.208;2024-01-30T18:53:09;102680.84;;;9.41;100.00
29163;BME280;20331;53.144;8.208;2024-01-30T18:58:31;102673.91;;;9.34;100.00
29163;BME280;20331;53.144;8.208;2024-01-30T19:03:52;102690.25;;;9.30;100.00
29163;BME280;20331;53.144;8.208;2024-01-30T19:09:15;102697.94;;;9.22;100.00
29163;BME280;20331;53.144;8.208;2024-01-30T19:14:37;102705.72;;;9.25;100.00
29163;BME280;20331;53.144;8.208;2024-01-30T19:19:59;102716.03;;;9.27;100.00
29163;BME280;20331;53.144;8.208;2024-01-30T19:25:21;102722.03;;;9.15;100.00
29163;BME280;20331;53.144;8.208;2024-01-30T19:30:42;102729.72;;;9.07;100.00
29163;BME280;20331;53.144;8.208;2024-01-30T19:36:04;102736.53;;;9.01;100.00
29163;BME280;20331;53.144;8.208;2024-01-30T19:41:26;102747.69;;;8.95;100.00
29163;BME280;20331;53.144;8.208;2024-01-30T19:46:48;102767.44;;;8.87;100.00
29163;BME280;20331;53.144;8.208;2024-01-30T19:52:10;102764.03;;;8.90;100.00
29163;BME280;20331;53.144;8.208;2024-01-30T19:57:31;102773.41;;;8.85;100.00
29163;BME280;20331;53.144;8.208;2024-01-30T20:02:53;102778.56;;;8.80;100.00
29163;BME280;20331;53.144;8.208;2024-01-30T20:08:15;102781.09;;;8.77;100.00
29163;BME280;20331;53.144;8.208;2024-01-30T20:13:37;102794.78;;;8.67;100.00
29163;BME280;20331;53.144;8.208;2024-01-30T20:19:01;102811.06;;;8.60;100.00
29163;BME280;20331;53.144;8.208;2024-01-30T20:24:23;102818.63;;;8.45;100.00
29163;BME280;20331;53.144;8.208;2024-01-30T20:29:45;102822.00;;;8.38;100.00
29163;BME280;20331;53.144;8.208;2024-01-30T20:35:07;102837.38;;;8.29;100.00
29163;BME280;20331;53.144;8.208;2024-01-30T20:40:29;102845.13;;;8.31;100.00
29163;BME280;20331;53.144;8.208;2024-01-30T20:45:51;102839.97;;;8.32;100.00
29163;BME280;20331;53.144;8.208;2024-01-30T20:51:12;102861.31;;;8.22;100.00
29163;BME280;20331;53.144;8.208;2024-01-30T20:56:35;102871.56;;;8.16;100.00
29163;BME280;20331;53.144;8.208;2024-01-30T21:01:57;102879.28;;;8.16;100.00
29163;BME280;20331;53.144;8.208;2024-01-30T21:07:18;102882.66;;;8.10;100.00
29163;BME280;20331;53.144;8.208;2024-01-30T21:12:44;102885.94;;;8.00;100.00
29163;BME280;20331;53.144;8.208;2024-01-30T21:18:06;102903.09;;;7.98;100.00
29163;BME280;20331;53.144;8.208;2024-01-30T21:23:30;102909.13;;;7.99;100.00
29163;BME280;20331;53.144;8.208;2024-01-30T21:28:51;102914.13;;;7.87;100.00
29163;BME280;20331;53.144;8.208;2024-01-30T21:34:13;102928.69;;;7.83;100.00
29163;BME280;20331;53.144;8.208;2024-01-30T21:39:35;102931.16;;;7.79;100.00
29163;BME280;20331;53.144;8.208;2024-01-30T21:44:58;102950.06;;;7.78;100.00
29163;BME280;20331;53.144;8.208;2024-01-30T21:50:20;102945.75;;;7.78;100.00
29163;BME280;20331;53.144;8.208;2024-01-30T21:55:42;102958.53;;;7.71;100.00
29163;BME280;20331;53.144;8.208;2024-01-30T22:01:04;102952.44;;;7.67;100.00
29163;BME280;20331;53.144;8.208;2024-01-30T22:06:26;102954.09;;;7.64;100.00
29163;BME280;20331;53.144;8.208;2024-01-30T22:11:48;102973.00;;;7.64;100.00
29163;BME280;20331;53.144;8.208;2024-01-30T22:17:10;102973.81;;;7.62;100.00
29163;BME280;20331;53.144;8.208;2024-01-30T22:22:32;102984.13;;;7.62;100.00
29163;BME280;20331;53.144;8.208;2024-01-30T22:27:55;102989.25;;;7.59;100.00
29163;BME280;20331;53.144;8.208;2024-01-30T22:33:17;102994.44;;;7.62;100.00
29163;BME280;20331;53.144;8.208;2024-01-30T22:38:47;103000.47;;;7.62;100.00
29163;BME280;20331;53.144;8.208;2024-01-30T22:44:09;103014.97;;;7.56;100.00
29163;BME280;20331;53.144;8.208;2024-01-30T22:49:31;103032.06;;;7.51;100.00
29163;BME280;20331;53.144;8.208;2024-01-30T22:54:52;103027.56;;;7.42;100.00
29163;BME280;20331;53.144;8.208;2024-01-30T23:00:14;103033.56;;;7.40;100.00
29163;BME280;20331;53.144;8.208;2024-01-30T23:05:37;103050.59;;;7.35;100.00
29163;BME280;20331;53.144;8.208;2024-01-30T23:10:59;103062.50;;;7.27;100.00
29163;BME280;20331;53.144;8.208;2024-01-30T23:16:20;103080.38;;;7.21;100.00
29163;BME280;20331;53.144;8.208;2024-01-30T23:21:42;103086.50;;;7.27;100.00
29163;BME280;20331;53.144;8.208;2024-01-30T23:27:03;103077.66;;;7.14;100.00
29163;BME280;20331;53.144;8.208;2024-01-30T23:32:26;103093.19;;;7.18;100.00
29163;BME280;20331;53.144;8.208;2024-01-30T23:37:59;103099.00;;;7.09;100.00
29163;BME280;20331;53.144;8.208;2024-01-30T23:43:21;103104.06;;;7.03;100.00
29163;BME280;20331;53.144;8.208;2024-01-30T23:48:46;103105.78;;;7.04;100.00
29163;BME280;20331;53.144;8.208;2024-01-30T23:54:08;103114.38;;;7.04;100.00
29163;BME280;20331;53.144;8.208;2024-01-30T23:59:29;103115.16;;;7.02;100.00
